sensor_id;sensor_type;location;lat;lon;timestamp;temperature;humidity
65985;HTU21D;52748;51.112;5.880;2023-04-28T00:01:43;19.77;50.88
65985;HTU21D;52748;51.112;5.880;2023-04-28T00:04:09;19.75;50.92
65985;HTU21D;52748;51.112;5.880;2023-04-28T00:06:35;19.75;50.95
65985;HTU21D;52748;51.112;5.880;2023-04-28T00:09:01;19.74;50.98
65985;HTU21D;52748;51.112;5.880;2023-04-28T00:11:28;19.74;51.01
65985;HTU21D;52748;51.112;5.880;2023-04-28T00:13:54;19.74;51.03
65985;HTU21D;52748;51.112;5.880;2023-04-28T00:16:20;19.73;51.05
65985;HTU21D;52748;51.112;5.880;2023-04-28T00:18:45;19.72;51.07
65985;HTU21D;52748;51.112;5.880;2023-04-28T00:21:11;19.75;51.01
65985;HTU21D;52748;51.112;5.880;2023-04-28T00:23:37;19.77;50.87
65985;HTU21D;52748;51.112;5.880;2023-04-28T00:26:03;19.77;50.82
65985;HTU21D;52748;51.112;5.880;2023-04-28T00:28:29;19.75;50.88
65985;HTU21D;52748;51.112;5.880;2023-04-28T00:30:55;19.74;50.95
65985;HTU21D;52748;51.112;5.880;2023-04-28T00:33:20;19.75;51.01
65985;HTU21D;52748;51.112;5.880;2023-04-28T00:35:46;19.75;50.94
65985;HTU21D;52748;51.112;5.880;2023-04-28T00:38:12;19.75;50.85
65985;HTU21D;52748;51.112;5.880;2023-04-28T00:40:38;19.74;50.94
65985;HTU21D;52748;51.112;5.880;2023-04-28T00:43:05;19.73;51.02
65985;HTU21D;52748;51.112;5.880;2023-04-28T00:45:31;19.72;51.09
65985;HTU21D;52748;51.112;5.880;2023-04-28T00:48:01;19.72;51.10
65985;HTU21D;52748;51.112;5.880;2023-04-28T00:50:27;19.75;51.00
65985;HTU21D;52748;51.112;5.880;2023-04-28T00:52:53;19.76;50.90
65985;HTU21D;52748;51.112;5.880;2023-04-28T00:55:21;19.74;50.95
65985;HTU21D;52748;51.112;5.880;2023-04-28T00:57:50;19.76;50.92
65985;HTU21D;52748;51.112;5.880;2023-04-28T01:00:17;19.72;51.01
65985;HTU21D;52748;51.112;5.880;2023-04-28T01:03:02;19.71;51.13
65985;HTU21D;52748;51.112;5.880;2023-04-28T01:05:33;19.70;51.21
65985;HTU21D;52748;51.112;5.880;2023-04-28T01:08:00;19.69;51.20
65985;HTU21D;52748;51.112;5.880;2023-04-28T01:10:26;19.68;51.24
65985;HTU21D;52748;51.112;5.880;2023-04-28T01:12:52;19.68;51.27
65985;HTU21D;52748;51.112;5.880;2023-04-28T01:15:19;19.71;51.12
65985;HTU21D;52748;51.112;5.880;2023-04-28T01:17:47;19.69;51.12
65985;HTU21D;52748;51.112;5.880;2023-04-28T01:20:13;19.68;51.20
65985;HTU21D;52748;51.112;5.880;2023-04-28T01:22:40;19.67;51.30
65985;HTU21D;52748;51.112;5.880;2023-04-28T01:25:07;19.66;51.35
65985;HTU21D;52748;51.112;5.880;2023-04-28T01:27:33;19.63;51.42
65985;HTU21D;52748;51.112;5.880;2023-04-28T01:29:59;19.67;51.33
65985;HTU21D;52748;51.112;5.880;2023-04-28T01:32:25;19.69;51.23
65985;HTU21D;52748;51.112;5.880;2023-04-28T01:34:51;19.69;51.12
65985;HTU21D;52748;51.112;5.880;2023-04-28T01:37:17;19.67;51.21
65985;HTU21D;52748;51.112;5.880;2023-04-28T01:39:43;19.65;51.29
65985;HTU21D;52748;51.112;5.880;2023-04-28T01:42:09;19.65;51.37
65985;HTU21D;52748;51.112;5.880;2023-04-28T01:44:34;19.62;51.40
65985;HTU21D;52748;51.112;5.880;2023-04-28T01:47:00;19.62;51.44
65985;HTU21D;52748;51.112;5.880;2023-04-28T01:49:26;19.61;51.50
65985;HTU21D;52748;51.112;5.880;2023-04-28T01:51:52;19.61;51.51
65985;HTU21D;52748;51.112;5.880;2023-04-28T01:54:17;19.60;51.53
65985;HTU21D;52748;51.112;5.880;2023-04-28T01:56:43;19.59;51.56
65985;HTU21D;52748;51.112;5.880;2023-04-28T01:59:10;19.59;51.56
65985;HTU21D;52748;51.112;5.880;2023-04-28T02:01:36;19.58;51.58
65985;HTU21D;52748;51.112;5.880;2023-04-28T02:04:02;19.58;51.61
65985;HTU21D;52748;51.112;5.880;2023-04-28T02:06:30;19.58;51.59
65985;HTU21D;52748;51.112;5.880;2023-04-28T02:08:56;19.57;51.61
65985;HTU21D;52748;51.112;5.880;2023-04-28T02:11:22;19.57;51.62
65985;HTU21D;52748;51.112;5.880;2023-04-28T02:13:47;19.56;51.65
65985;HTU21D;52748;51.112;5.880;2023-04-28T02:16:13;19.58;51.66
65985;HTU21D;52748;51.112;5.880;2023-04-28T02:18:41;19.57;51.67
65985;HTU21D;52748;51.112;5.880;2023-04-28T02:21:11;19.56;51.69
65985;HTU21D;52748;51.112;5.880;2023-04-28T02:23:37;19.57;51.71
65985;HTU21D;52748;51.112;5.880;2023-04-28T02:26:04;19.55;51.69
65985;HTU21D;52748;51.112;5.880;2023-04-28T02:28:30;19.59;51.67
65985;HTU21D;52748;51.112;5.880;2023-04-28T02:31:07;19.61;51.52
65985;HTU21D;52748;51.112;5.880;2023-04-28T02:33:34;19.62;51.42
65985;HTU21D;52748;51.112;5.880;2023-04-28T02:36:02;19.60;51.50
65985;HTU21D;52748;51.112;5.880;2023-04-28T02:38:28;19.58;51.60
65985;HTU21D;52748;51.112;5.880;2023-04-28T02:41:04;19.58;51.63
65985;HTU21D;52748;51.112;5.880;2023-04-28T02:43:31;19.60;51.53
65985;HTU21D;52748;51.112;5.880;2023-04-28T02:45:57;19.60;51.46
65985;HTU21D;52748;51.112;5.880;2023-04-28T02:48:24;19.58;51.57
65985;HTU21D;52748;51.112;5.880;2023-04-28T02:50:52;19.57;51.67
65985;HTU21D;52748;51.112;5.880;2023-04-28T02:53:18;19.56;51.71
65985;HTU21D;52748;51.112;5.880;2023-04-28T02:55:44;19.57;51.73
65985;HTU21D;52748;51.112;5.880;2023-04-28T02:58:11;19.56;51.76
65985;HTU21D;52748;51.112;5.880;2023-04-28T03:00:36;19.54;51.81
65985;HTU21D;52748;51.112;5.880;2023-04-28T03:03:02;19.55;51.81
65985;HTU21D;52748;51.112;5.880;2023-04-28T03:05:28;19.59;51.72
65985;HTU21D;52748;51.112;5.880;2023-04-28T03:07:54;19.57;51.68
65985;HTU21D;52748;51.112;5.880;2023-04-28T03:10:20;19.58;51.72
65985;HTU21D;52748;51.112;5.880;2023-04-28T03:12:46;19.59;51.67
65985;HTU21D;52748;51.112;5.880;2023-04-28T03:15:11;19.57;51.71
65985;HTU21D;52748;51.112;5.880;2023-04-28T03:17:37;19.55;51.78
65985;HTU21D;52748;51.112;5.880;2023-04-28T03:20:08;19.54;51.78
65985;HTU21D;52748;51.112;5.880;2023-04-28T03:22:34;19.56;51.77
65985;HTU21D;52748;51.112;5.880;2023-04-28T03:25:01;19.56;51.76
65985;HTU21D;52748;51.112;5.880;2023-04-28T03:27:29;19.53;51.82
65985;HTU21D;52748;51.112;5.880;2023-04-28T03:29:57;19.54;51.87
65985;HTU21D;52748;51.112;5.880;2023-04-28T03:32:23;19.53;51.88
65985;HTU21D;52748;51.112;5.880;2023-04-28T03:34:49;19.52;51.91
65985;HTU21D;52748;51.112;5.880;2023-04-28T03:37:15;19.51;51.95
65985;HTU21D;52748;51.112;5.880;2023-04-28T03:39:41;19.54;51.91
65985;HTU21D;52748;51.112;5.880;2023-04-28T03:42:07;19.55;51.86
65985;HTU21D;52748;51.112;5.880;2023-04-28T03:44:35;19.51;51.91
65985;HTU21D;52748;51.112;5.880;2023-04-28T03:47:01;19.51;51.97
65985;HTU21D;52748;51.112;5.880;2023-04-28T03:49:27;19.51;52.02
65985;HTU21D;52748;51.112;5.880;2023-04-28T03:51:53;19.53;51.98
65985;HTU21D;52748;51.112;5.880;2023-04-28T03:54:19;19.55;51.87
65985;HTU21D;52748;51.112;5.880;2023-04-28T03:56:45;19.56;51.77
65985;HTU21D;52748;51.112;5.880;2023-04-28T03:59:11;19.57;51.74
65985;HTU21D;52748;51.112;5.880;2023-04-28T04:01:38;19.58;51.71
65985;HTU21D;52748;51.112;5.880;2023-04-28T04:04:04;19.59;51.69
65985;HTU21D;52748;51.112;5.880;2023-04-28T04:06:30;19.60;51.73
65985;HTU21D;52748;51.112;5.880;2023-04-28T04:08:57;19.60;51.71
65985;HTU21D;52748;51.112;5.880;2023-04-28T04:11:22;19.60;51.69
65985;HTU21D;52748;51.112;5.880;2023-04-28T04:13:48;19.58;51.75
65985;HTU21D;52748;51.112;5.880;2023-04-28T04:16:15;19.57;51.79
65985;HTU21D;52748;51.112;5.880;2023-04-28T04:18:41;19.58;51.76
65985;HTU21D;52748;51.112;5.880;2023-04-28T04:21:17;19.59;51.76
65985;HTU21D;52748;51.112;5.880;2023-04-28T04:23:44;19.57;51.75
65985;HTU21D;52748;51.112;5.880;2023-04-28T04:26:10;19.58;51.75
65985;HTU21D;52748;51.112;5.880;2023-04-28T04:28:37;19.55;51.88
65985;HTU21D;52748;51.112;5.880;2023-04-28T04:31:04;19.52;52.02
65985;HTU21D;52748;51.112;5.880;2023-04-28T04:33:30;19.53;52.10
65985;HTU21D;52748;51.112;5.880;2023-04-28T04:35:56;19.55;52.01
65985;HTU21D;52748;51.112;5.880;2023-04-28T04:38:24;19.51;52.08
65985;HTU21D;52748;51.112;5.880;2023-04-28T04:40:50;19.51;52.17
65985;HTU21D;52748;51.112;5.880;2023-04-28T04:43:16;19.50;52.23
65985;HTU21D;52748;51.112;5.880;2023-04-28T04:45:46;19.52;52.20
65985;HTU21D;52748;51.112;5.880;2023-04-28T04:48:13;19.53;52.10
65985;HTU21D;52748;51.112;5.880;2023-04-28T04:50:40;19.54;52.02
65985;HTU21D;52748;51.112;5.880;2023-04-28T04:53:06;19.51;52.10
65985;HTU21D;52748;51.112;5.880;2023-04-28T04:55:32;19.50;52.20
65985;HTU21D;52748;51.112;5.880;2023-04-28T04:57:58;19.48;52.29
65985;HTU21D;52748;51.112;5.880;2023-04-28T05:00:47;19.52;52.20
65985;HTU21D;52748;51.112;5.880;2023-04-28T05:03:13;19.52;52.14
65985;HTU21D;52748;51.112;5.880;2023-04-28T05:05:40;19.54;52.12
65985;HTU21D;52748;51.112;5.880;2023-04-28T05:08:14;19.55;52.07
65985;HTU21D;52748;51.112;5.880;2023-04-28T05:10:40;19.53;52.20
65985;HTU21D;52748;51.112;5.880;2023-04-28T05:13:06;19.55;52.22
65985;HTU21D;52748;51.112;5.880;2023-04-28T05:15:31;19.53;52.32
65985;HTU21D;52748;51.112;5.880;2023-04-28T05:18:26;19.55;52.33
65985;HTU21D;52748;51.112;5.880;2023-04-28T05:20:52;19.57;52.27
65985;HTU21D;52748;51.112;5.880;2023-04-28T05:23:18;19.59;52.21
65985;HTU21D;52748;51.112;5.880;2023-04-28T05:25:44;19.58;52.27
65985;HTU21D;52748;51.112;5.880;2023-04-28T05:28:10;19.57;52.36
65985;HTU21D;52748;51.112;5.880;2023-04-28T05:30:36;19.57;52.49
65985;HTU21D;52748;51.112;5.880;2023-04-28T05:33:02;19.57;52.56
65985;HTU21D;52748;51.112;5.880;2023-04-28T05:35:28;19.57;52.59
65985;HTU21D;52748;51.112;5.880;2023-04-28T05:37:57;19.58;52.59
65985;HTU21D;52748;51.112;5.880;2023-04-28T05:40:24;19.59;52.64
65985;HTU21D;52748;51.112;5.880;2023-04-28T05:42:50;19.62;52.56
65985;HTU21D;52748;51.112;5.880;2023-04-28T05:45:15;19.60;52.61
65985;HTU21D;52748;51.112;5.880;2023-04-28T05:47:41;19.60;52.66
65985;HTU21D;52748;51.112;5.880;2023-04-28T05:50:07;19.60;52.88
65985;HTU21D;52748;51.112;5.880;2023-04-28T05:52:33;19.60;53.09
65985;HTU21D;52748;51.112;5.880;2023-04-28T05:54:59;19.61;53.20
65985;HTU21D;52748;51.112;5.880;2023-04-28T05:57:26;19.61;53.37
65985;HTU21D;52748;51.112;5.880;2023-04-28T05:59:52;19.62;53.34
65985;HTU21D;52748;51.112;5.880;2023-04-28T06:02:18;19.63;53.43
65985;HTU21D;52748;51.112;5.880;2023-04-28T06:04:44;19.66;53.52
65985;HTU21D;52748;51.112;5.880;2023-04-28T06:07:10;19.66;53.70
65985;HTU21D;52748;51.112;5.880;2023-04-28T06:09:36;19.68;53.84
65985;HTU21D;52748;51.112;5.880;2023-04-28T06:12:02;19.68;54.46
65985;HTU21D;52748;51.112;5.880;2023-04-28T06:14:28;19.72;54.02
65985;HTU21D;52748;51.112;5.880;2023-04-28T06:16:54;19.75;53.69
65985;HTU21D;52748;51.112;5.880;2023-04-28T06:19:21;19.74;53.69
65985;HTU21D;52748;51.112;5.880;2023-04-28T06:21:46;19.73;53.87
65985;HTU21D;52748;51.112;5.880;2023-04-28T06:24:14;19.74;54.04
65985;HTU21D;52748;51.112;5.880;2023-04-28T06:26:42;19.72;54.07
65985;HTU21D;52748;51.112;5.880;2023-04-28T06:29:08;19.72;54.38
65985;HTU21D;52748;51.112;5.880;2023-04-28T06:31:34;19.74;55.12
65985;HTU21D;52748;51.112;5.880;2023-04-28T06:34:00;19.73;55.50
65985;HTU21D;52748;51.112;5.880;2023-04-28T06:36:26;19.74;55.52
65985;HTU21D;52748;51.112;5.880;2023-04-28T06:38:53;19.74;55.29
65985;HTU21D;52748;51.112;5.880;2023-04-28T06:41:19;19.74;55.61
65985;HTU21D;52748;51.112;5.880;2023-04-28T06:43:48;19.73;53.23
65985;HTU21D;52748;51.112;5.880;2023-04-28T06:46:28;19.67;52.61
65985;HTU21D;52748;51.112;5.880;2023-04-28T06:48:54;19.63;52.56
65985;HTU21D;52748;51.112;5.880;2023-04-28T06:51:20;19.55;52.95
65985;HTU21D;52748;51.112;5.880;2023-04-28T06:53:46;19.48;53.39
65985;HTU21D;52748;51.112;5.880;2023-04-28T06:56:13;19.45;55.25
65985;HTU21D;52748;51.112;5.880;2023-04-28T06:58:39;19.43;54.93
65985;HTU21D;52748;51.112;5.880;2023-04-28T07:01:04;19.44;54.51
65985;HTU21D;52748;51.112;5.880;2023-04-28T07:03:30;19.44;54.68
65985;HTU21D;52748;51.112;5.880;2023-04-28T07:05:56;19.48;54.69
65985;HTU21D;52748;51.112;5.880;2023-04-28T07:08:22;19.55;55.49
65985;HTU21D;52748;51.112;5.880;2023-04-28T07:10:48;19.62;55.25
65985;HTU21D;52748;51.112;5.880;2023-04-28T07:13:14;19.70;54.95
65985;HTU21D;52748;51.112;5.880;2023-04-28T07:15:39;19.73;54.85
65985;HTU21D;52748;51.112;5.880;2023-04-28T07:18:05;19.79;54.73
65985;HTU21D;52748;51.112;5.880;2023-04-28T07:20:31;19.83;55.23
65985;HTU21D;52748;51.112;5.880;2023-04-28T07:22:57;19.83;54.61
65985;HTU21D;52748;51.112;5.880;2023-04-28T07:25:23;19.81;54.78
65985;HTU21D;52748;51.112;5.880;2023-04-28T07:27:49;19.79;55.01
65985;HTU21D;52748;51.112;5.880;2023-04-28T07:30:15;19.81;54.97
65985;HTU21D;52748;51.112;5.880;2023-04-28T07:32:40;19.79;55.36
65985;HTU21D;52748;51.112;5.880;2023-04-28T07:35:07;19.71;56.36
65985;HTU21D;52748;51.112;5.880;2023-04-28T07:37:33;19.61;56.76
65985;HTU21D;52748;51.112;5.880;2023-04-28T07:39:59;19.62;58.02
65985;HTU21D;52748;51.112;5.880;2023-04-28T07:42:25;19.61;58.48
65985;HTU21D;52748;51.112;5.880;2023-04-28T07:44:52;19.67;58.59
65985;HTU21D;52748;51.112;5.880;2023-04-28T07:47:17;19.72;58.22
65985;HTU21D;52748;51.112;5.880;2023-04-28T07:49:43;19.77;57.27
65985;HTU21D;52748;51.112;5.880;2023-04-28T07:52:09;19.81;56.87
65985;HTU21D;52748;51.112;5.880;2023-04-28T07:54:35;19.79;56.81
65985;HTU21D;52748;51.112;5.880;2023-04-28T07:57:00;19.80;56.88
65985;HTU21D;52748;51.112;5.880;2023-04-28T07:59:32;19.79;56.95
65985;HTU21D;52748;51.112;5.880;2023-04-28T08:01:58;19.79;56.97
65985;HTU21D;52748;51.112;5.880;2023-04-28T08:04:24;19.77;57.01
65985;HTU21D;52748;51.112;5.880;2023-04-28T08:06:50;19.77;57.08
65985;HTU21D;52748;51.112;5.880;2023-04-28T08:09:16;19.82;57.23
65985;HTU21D;52748;51.112;5.880;2023-04-28T08:11:42;19.85;57.03
65985;HTU21D;52748;51.112;5.880;2023-04-28T08:14:07;19.88;57.06
65985;HTU21D;52748;51.112;5.880;2023-04-28T08:16:34;19.90;57.07
65985;HTU21D;52748;51.112;5.880;2023-04-28T08:19:03;19.94;56.93
65985;HTU21D;52748;51.112;5.880;2023-04-28T08:21:28;19.91;57.02
65985;HTU21D;52748;51.112;5.880;2023-04-28T08:23:54;19.92;57.19
65985;HTU21D;52748;51.112;5.880;2023-04-28T08:26:20;19.92;57.16
65985;HTU21D;52748;51.112;5.880;2023-04-28T08:28:46;19.92;57.58
65985;HTU21D;52748;51.112;5.880;2023-04-28T08:31:12;19.94;57.48
65985;HTU21D;52748;51.112;5.880;2023-04-28T08:33:37;19.94;57.50
65985;HTU21D;52748;51.112;5.880;2023-04-28T08:36:03;19.96;57.48
65985;HTU21D;52748;51.112;5.880;2023-04-28T08:38:29;19.97;57.55
65985;HTU21D;52748;51.112;5.880;2023-04-28T08:40:55;20.00;58.24
65985;HTU21D;52748;51.112;5.880;2023-04-28T08:43:21;20.06;57.55
65985;HTU21D;52748;51.112;5.880;2023-04-28T08:45:47;20.05;57.87
65985;HTU21D;52748;51.112;5.880;2023-04-28T08:48:21;20.03;57.86
65985;HTU21D;52748;51.112;5.880;2023-04-28T08:50:52;20.09;57.64
65985;HTU21D;52748;51.112;5.880;2023-04-28T08:53:27;20.11;57.34
65985;HTU21D;52748;51.112;5.880;2023-04-28T08:55:56;20.11;57.50
65985;HTU21D;52748;51.112;5.880;2023-04-28T08:58:23;20.10;57.56
65985;HTU21D;52748;51.112;5.880;2023-04-28T09:00:53;20.12;57.39
65985;HTU21D;52748;51.112;5.880;2023-04-28T09:03:19;20.15;57.23
65985;HTU21D;52748;51.112;5.880;2023-04-28T09:05:45;20.15;57.16
65985;HTU21D;52748;51.112;5.880;2023-04-28T09:08:11;20.15;57.16
65985;HTU21D;52748;51.112;5.880;2023-04-28T09:10:37;20.16;56.93
65985;HTU21D;52748;51.112;5.880;2023-04-28T09:13:03;20.18;56.63
65985;HTU21D;52748;51.112;5.880;2023-04-28T09:15:33;20.18;56.56
65985;HTU21D;52748;51.112;5.880;2023-04-28T09:18:01;20.16;56.54
65985;HTU21D;52748;51.112;5.880;2023-04-28T09:20:29;20.12;56.68
65985;HTU21D;52748;51.112;5.880;2023-04-28T09:23:11;20.10;56.71
65985;HTU21D;52748;51.112;5.880;2023-04-28T09:25:37;20.07;56.77
65985;HTU21D;52748;51.112;5.880;2023-04-28T09:28:21;20.04;56.88
65985;HTU21D;52748;51.112;5.880;2023-04-28T09:30:47;20.05;56.81
65985;HTU21D;52748;51.112;5.880;2023-04-28T09:33:13;20.07;56.64
65985;HTU21D;52748;51.112;5.880;2023-04-28T09:35:44;20.03;56.70
65985;HTU21D;52748;51.112;5.880;2023-04-28T09:38:11;20.01;56.80
65985;HTU21D;52748;51.112;5.880;2023-04-28T09:40:58;19.99;56.84
65985;HTU21D;52748;51.112;5.880;2023-04-28T09:43:32;19.97;56.86
65985;HTU21D;52748;51.112;5.880;2023-04-28T09:46:01;19.95;56.90
65985;HTU21D;52748;51.112;5.880;2023-04-28T09:48:35;19.98;56.87
65985;HTU21D;52748;51.112;5.880;2023-04-28T09:51:03;20.00;56.68
65985;HTU21D;52748;51.112;5.880;2023-04-28T09:53:31;19.97;56.64
65985;HTU21D;52748;51.112;5.880;2023-04-28T09:56:01;19.96;56.72
65985;HTU21D;52748;51.112;5.880;2023-04-28T09:58:30;19.94;56.79
65985;HTU21D;52748;51.112;5.880;2023-04-28T10:00:59;19.92;56.84
65985;HTU21D;52748;51.112;5.880;2023-04-28T10:03:27;19.91;56.85
65985;HTU21D;52748;51.112;5.880;2023-04-28T10:05:54;19.89;56.84
65985;HTU21D;52748;51.112;5.880;2023-04-28T10:08:22;19.92;56.74
65985;HTU21D;52748;51.112;5.880;2023-04-28T10:10:50;19.90;56.71
65985;HTU21D;52748;51.112;5.880;2023-04-28T10:13:21;19.91;56.75
65985;HTU21D;52748;51.112;5.880;2023-04-28T10:15:51;19.89;56.81
65985;HTU21D;52748;51.112;5.880;2023-04-28T10:18:22;19.88;56.84
65985;HTU21D;52748;51.112;5.880;2023-04-28T10:20:55;19.86;56.85
65985;HTU21D;52748;51.112;5.880;2023-04-28T10:26:35;19.85;56.90
65985;HTU21D;52748;51.112;5.880;2023-04-28T10:29:12;19.84;56.93
65985;HTU21D;52748;51.112;5.880;2023-04-28T10:34:43;19.83;56.90
65985;HTU21D;52748;51.112;5.880;2023-04-28T10:37:09;19.83;56.90
65985;HTU21D;52748;51.112;5.880;2023-04-28T10:39:36;19.83;56.90
65985;HTU21D;52748;51.112;5.880;2023-04-28T10:42:02;19.83;56.91
65985;HTU21D;52748;51.112;5.880;2023-04-28T10:47:07;19.88;56.61
65985;HTU21D;52748;51.112;5.880;2023-04-28T10:55:36;19.88;56.52
65985;HTU21D;52748;51.112;5.880;2023-04-28T11:00:40;19.86;56.61
65985;HTU21D;52748;51.112;5.880;2023-04-28T11:03:06;19.85;56.65
65985;HTU21D;52748;51.112;5.880;2023-04-28T11:05:33;19.88;56.55
65985;HTU21D;52748;51.112;5.880;2023-04-28T11:11:16;19.94;56.27
65985;HTU21D;52748;51.112;5.880;2023-04-28T11:13:43;19.91;56.19
65985;HTU21D;52748;51.112;5.880;2023-04-28T11:16:23;19.88;56.32
65985;HTU21D;52748;51.112;5.880;2023-04-28T11:19:00;19.86;56.42
65985;HTU21D;52748;51.112;5.880;2023-04-28T11:21:31;19.83;56.53
65985;HTU21D;52748;51.112;5.880;2023-04-28T11:23:57;19.85;56.57
65985;HTU21D;52748;51.112;5.880;2023-04-28T11:26:24;19.87;56.42
65985;HTU21D;52748;51.112;5.880;2023-04-28T11:28:54;19.88;56.27
65985;HTU21D;52748;51.112;5.880;2023-04-28T11:31:22;19.85;56.36
65985;HTU21D;52748;51.112;5.880;2023-04-28T11:33:53;19.83;56.44
65985;HTU21D;52748;51.112;5.880;2023-04-28T11:36:29;19.83;56.50
65985;HTU21D;52748;51.112;5.880;2023-04-28T11:38:58;19.82;56.55
65985;HTU21D;52748;51.112;5.880;2023-04-28T11:41:27;19.82;56.58
65985;HTU21D;52748;51.112;5.880;2023-04-28T11:43:53;19.82;56.61
65985;HTU21D;52748;51.112;5.880;2023-04-28T11:46:23;19.81;56.62
65985;HTU21D;52748;51.112;5.880;2023-04-28T11:49:02;19.81;56.60
65985;HTU21D;52748;51.112;5.880;2023-04-28T11:51:33;19.81;56.61
65985;HTU21D;52748;51.112;5.880;2023-04-28T11:54:00;19.79;56.61
65985;HTU21D;52748;51.112;5.880;2023-04-28T11:56:27;19.80;56.58
65985;HTU21D;52748;51.112;5.880;2023-04-28T11:59:05;19.79;56.61
65985;HTU21D;52748;51.112;5.880;2023-04-28T12:01:34;19.79;56.60
65985;HTU21D;52748;51.112;5.880;2023-04-28T12:04:02;19.80;56.61
65985;HTU21D;52748;51.112;5.880;2023-04-28T12:06:28;19.80;56.59
65985;HTU21D;52748;51.112;5.880;2023-04-28T12:08:54;19.80;56.61
65985;HTU21D;52748;51.112;5.880;2023-04-28T12:11:20;19.80;56.61
65985;HTU21D;52748;51.112;5.880;2023-04-28T12:14:03;19.81;56.58
65985;HTU21D;52748;51.112;5.880;2023-04-28T12:16:38;19.81;56.55
65985;HTU21D;52748;51.112;5.880;2023-04-28T12:19:07;19.84;56.36
65985;HTU21D;52748;51.112;5.880;2023-04-28T12:21:37;19.86;56.23
65985;HTU21D;52748;51.112;5.880;2023-04-28T12:24:33;19.89;56.11
65985;HTU21D;52748;51.112;5.880;2023-04-28T12:27:21;19.87;56.11
65985;HTU21D;52748;51.112;5.880;2023-04-28T12:29:50;19.85;56.23
65985;HTU21D;52748;51.112;5.880;2023-04-28T12:32:19;19.85;56.32
65985;HTU21D;52748;51.112;5.880;2023-04-28T12:34:45;19.83;56.39
65985;HTU21D;52748;51.112;5.880;2023-04-28T12:37:11;19.83;56.57
65985;HTU21D;52748;51.112;5.880;2023-04-28T12:39:40;19.81;57.13
65985;HTU21D;52748;51.112;5.880;2023-04-28T12:42:06;19.73;57.50
65985;HTU21D;52748;51.112;5.880;2023-04-28T12:44:33;19.73;57.63
65985;HTU21D;52748;51.112;5.880;2023-04-28T12:47:07;19.70;57.66
65985;HTU21D;52748;51.112;5.880;2023-04-28T12:49:34;19.68;58.13
65985;HTU21D;52748;51.112;5.880;2023-04-28T12:52:00;19.68;58.80
65985;HTU21D;52748;51.112;5.880;2023-04-28T12:54:26;19.72;59.73
65985;HTU21D;52748;51.112;5.880;2023-04-28T12:56:52;19.77;61.77
65985;HTU21D;52748;51.112;5.880;2023-04-28T12:59:21;19.83;63.77
65985;HTU21D;52748;51.112;5.880;2023-04-28T13:01:49;19.89;65.63
65985;HTU21D;52748;51.112;5.880;2023-04-28T13:04:16;19.95;67.33
65985;HTU21D;52748;51.112;5.880;2023-04-28T13:06:42;20.00;66.95
65985;HTU21D;52748;51.112;5.880;2023-04-28T13:09:17;20.05;67.00
65985;HTU21D;52748;51.112;5.880;2023-04-28T13:11:43;20.09;66.80
65985;HTU21D;52748;51.112;5.880;2023-04-28T13:14:09;20.12;67.55
65985;HTU21D;52748;51.112;5.880;2023-04-28T13:16:35;20.16;68.04
65985;HTU21D;52748;51.112;5.880;2023-04-28T13:19:03;20.20;68.22
65985;HTU21D;52748;51.112;5.880;2023-04-28T13:21:34;20.20;68.39
65985;HTU21D;52748;51.112;5.880;2023-04-28T13:24:00;20.24;68.14
65985;HTU21D;52748;51.112;5.880;2023-04-28T13:26:25;20.25;68.04
65985;HTU21D;52748;51.112;5.880;2023-04-28T13:28:51;20.27;68.07
65985;HTU21D;52748;51.112;5.880;2023-04-28T13:31:18;20.28;68.12
65985;HTU21D;52748;51.112;5.880;2023-04-28T13:33:44;20.29;67.98
65985;HTU21D;52748;51.112;5.880;2023-04-28T13:36:10;20.30;67.59
65985;HTU21D;52748;51.112;5.880;2023-04-28T13:38:37;20.29;67.20
65985;HTU21D;52748;51.112;5.880;2023-04-28T13:41:02;20.30;67.07
65985;HTU21D;52748;51.112;5.880;2023-04-28T13:43:28;20.31;67.07
65985;HTU21D;52748;51.112;5.880;2023-04-28T13:45:55;20.34;66.59
65985;HTU21D;52748;51.112;5.880;2023-04-28T13:48:21;20.34;66.21
65985;HTU21D;52748;51.112;5.880;2023-04-28T13:50:48;20.34;66.36
65985;HTU21D;52748;51.112;5.880;2023-04-28T13:53:14;20.33;66.19
65985;HTU21D;52748;51.112;5.880;2023-04-28T13:55:40;20.34;66.20
65985;HTU21D;52748;51.112;5.880;2023-04-28T13:58:06;20.35;66.22
65985;HTU21D;52748;51.112;5.880;2023-04-28T14:00:33;20.33;66.48
65985;HTU21D;52748;51.112;5.880;2023-04-28T14:02:59;20.32;66.51
65985;HTU21D;52748;51.112;5.880;2023-04-28T14:05:26;20.31;66.53
65985;HTU21D;52748;51.112;5.880;2023-04-28T14:07:53;20.30;66.86
65985;HTU21D;52748;51.112;5.880;2023-04-28T14:10:20;20.27;67.07
65985;HTU21D;52748;51.112;5.880;2023-04-28T14:12:46;20.29;66.98
65985;HTU21D;52748;51.112;5.880;2023-04-28T14:15:12;20.27;67.11
65985;HTU21D;52748;51.112;5.880;2023-04-28T14:17:38;20.25;66.83
65985;HTU21D;52748;51.112;5.880;2023-04-28T14:20:04;20.29;67.59
65985;HTU21D;52748;51.112;5.880;2023-04-28T14:22:30;20.32;67.29
65985;HTU21D;52748;51.112;5.880;2023-04-28T14:24:56;20.34;66.88
65985;HTU21D;52748;51.112;5.880;2023-04-28T14:27:22;20.36;66.48
65985;HTU21D;52748;51.112;5.880;2023-04-28T14:29:48;20.37;66.07
65985;HTU21D;52748;51.112;5.880;2023-04-28T14:32:14;20.35;65.86
65985;HTU21D;52748;51.112;5.880;2023-04-28T14:34:41;20.36;65.46
65985;HTU21D;52748;51.112;5.880;2023-04-28T14:37:08;20.37;63.55
65985;HTU21D;52748;51.112;5.880;2023-04-28T14:39:34;20.32;61.70
65985;HTU21D;52748;51.112;5.880;2023-04-28T14:42:00;20.29;61.14
65985;HTU21D;52748;51.112;5.880;2023-04-28T14:44:26;20.25;61.30
65985;HTU21D;52748;51.112;5.880;2023-04-28T14:46:52;20.20;61.32
65985;HTU21D;52748;51.112;5.880;2023-04-28T14:49:18;20.19;61.35
65985;HTU21D;52748;51.112;5.880;2023-04-28T14:51:44;20.16;61.53
65985;HTU21D;52748;51.112;5.880;2023-04-28T14:54:11;20.15;61.44
65985;HTU21D;52748;51.112;5.880;2023-04-28T14:56:37;20.15;61.50
65985;HTU21D;52748;51.112;5.880;2023-04-28T14:59:02;20.17;61.31
65985;HTU21D;52748;51.112;5.880;2023-04-28T15:01:29;20.16;61.44
65985;HTU21D;52748;51.112;5.880;2023-04-28T15:03:55;20.17;62.21
65985;HTU21D;52748;51.112;5.880;2023-04-28T15:06:21;20.16;62.01
65985;HTU21D;52748;51.112;5.880;2023-04-28T15:08:47;20.17;63.98
65985;HTU21D;52748;51.112;5.880;2023-04-28T15:11:13;20.24;64.63
65985;HTU21D;52748;51.112;5.880;2023-04-28T15:13:39;20.30;64.69
65985;HTU21D;52748;51.112;5.880;2023-04-28T15:16:05;20.35;64.40
65985;HTU21D;52748;51.112;5.880;2023-04-28T15:18:31;20.36;64.37
65985;HTU21D;52748;51.112;5.880;2023-04-28T15:20:58;20.40;64.18
65985;HTU21D;52748;51.112;5.880;2023-04-28T15:23:24;20.44;64.75
65985;HTU21D;52748;51.112;5.880;2023-04-28T15:25:50;20.47;63.86
65985;HTU21D;52748;51.112;5.880;2023-04-28T15:28:18;20.48;63.95
65985;HTU21D;52748;51.112;5.880;2023-04-28T15:30:44;20.49;64.64
65985;HTU21D;52748;51.112;5.880;2023-04-28T15:33:10;20.50;64.63
65985;HTU21D;52748;51.112;5.880;2023-04-28T15:35:45;20.46;64.80
65985;HTU21D;52748;51.112;5.880;2023-04-28T15:38:11;20.43;65.02